2 luglio 2022

Tempo Codice Tempo metereologico Temp. Vista Base nuvolosa Vento METAR/SPECI
9:00 am
V
70 °F 6¼ mi+ - Var Var 3 kt METAR LFMU 020700Z AUTO VRB03KT CAVOK 21/11 Q1020 NOSIG
8:30 am
V
68 °F 6¼ mi+ - 340° 340° 4 kt METAR LFMU 020630Z AUTO 34004KT 310V010 CAVOK 20/11 Q1019 NOSIG
8:00 am
V
66 °F 6¼ mi+ - 330° 330° 3 kt METAR LFMU 020600Z AUTO 33003KT 300V360 CAVOK 19/11 Q1019 NOSIG
7:30 am
V
63 °F 6¼ mi+ - Var Var 2 kt METAR LFMU 020530Z AUTO VRB02KT CAVOK 17/11 Q1019 NOSIG
7:00 am
V
59 °F 6¼ mi+ - 300° 300° 3 kt METAR LFMU 020500Z AUTO 30003KT CAVOK 15/11 Q1019 NOSIG
6:30 am
V
57 °F 6¼ mi+ - 290° 290° 2 kt METAR LFMU 020430Z AUTO 29002KT CAVOK 14/10 Q1019 NOSIG
6:00 am
V
55 °F 6¼ mi+ - 270° 270° 3 kt METAR LFMU 020400Z AUTO 27003KT CAVOK 13/10 Q1019 NOSIG
5:30 am
V
57 °F 6¼ mi+ - 270° 270° 3 kt METAR LFMU 020330Z AUTO 27003KT CAVOK 14/10 Q1019 NOSIG
5:00 am
V
57 °F 6¼ mi+ - 290° 290° 3 kt METAR LFMU 020300Z AUTO 29003KT CAVOK 14/09 Q1019 NOSIG
4:30 am
V
57 °F 6¼ mi+ - 310° 310° 2 kt METAR LFMU 020230Z AUTO 31002KT CAVOK 14/09 Q1019 NOSIG
4:00 am
V
59 °F 6¼ mi+ - Var 000° 0 kt METAR LFMU 020200Z AUTO 00000KT CAVOK 15/10 Q1019
3:30 am
V
59 °F 6¼ mi+ - 310° 310° 3 kt METAR LFMU 020130Z AUTO 31003KT CAVOK 15/10 Q1019
3:00 am
V
61 °F 6¼ mi+ - 290° 290° 4 kt METAR LFMU 020100Z AUTO 29004KT CAVOK 16/10 Q1019
2:30 am
V
61 °F 6¼ mi+ - 290° 290° 4 kt METAR LFMU 020030Z AUTO 29004KT CAVOK 16/10 Q1019
2:00 am
V
63 °F 6¼ mi+ - 280° 280° 5 kt METAR LFMU 020000Z AUTO 28005KT CAVOK 17/09 Q1019
1:30 am
V
64 °F 6¼ mi+ - 280° 280° 4 kt METAR LFMU 012330Z AUTO 28004KT CAVOK 18/09 Q1019
1:00 am
V
66 °F 6¼ mi+ - Var Var 2 kt METAR LFMU 012300Z AUTO VRB02KT CAVOK 19/09 Q1019
12:30 am
V
66 °F 6¼ mi+ - 340° 340° 7 kt METAR LFMU 012230Z AUTO 34007KT CAVOK 19/09 Q1019
12:00 am
V
68 °F 6¼ mi+ - 280° 280° 6 kt METAR LFMU 012200Z AUTO 28006KT CAVOK 20/09 Q1019

1 luglio 2022

Tempo Codice Tempo metereologico Temp. Vista Base nuvolosa Vento METAR/SPECI
11:30 pm
V
70 °F 6¼ mi+ - 280° 280° 7 kt METAR LFMU 012130Z AUTO 28007KT CAVOK 21/09 Q1018
11:00 pm
V
72 °F 6¼ mi+ - 270° 270° 7 kt METAR LFMU 012100Z AUTO 27007KT CAVOK 22/09 Q1018
10:30 pm
V
73 °F 6¼ mi+ - 270° 270° 9 kt METAR LFMU 012030Z AUTO 27009KT CAVOK 23/10 Q1018 NOSIG
10:00 pm
V
73 °F 6¼ mi+ - 250° 250° 6 kt METAR LFMU 012000Z AUTO 25006KT CAVOK 23/09 Q1017 TEMPO 33010KT
9:30 pm
V
77 °F 6¼ mi+ - 290° 290° 7 kt METAR LFMU 011930Z AUTO 29007KT CAVOK 25/07 Q1017 NOSIG
9:00 pm
V
79 °F 6¼ mi+ - 320° 320° 8 kt METAR LFMU 011900Z AUTO 32008KT CAVOK 26/07 Q1016 NOSIG
8:30 pm
V
82 °F 6¼ mi+ - 320° 320° 9 kt METAR LFMU 011830Z AUTO 32009KT CAVOK 28/06 Q1016 NOSIG
8:00 pm
V
82 °F 6¼ mi+ - 330° 330° 8 kt METAR LFMU 011800Z AUTO 33008KT CAVOK 28/07 Q1016 NOSIG
7:30 pm
V
84 °F 6¼ mi+ - 320° 320° 9 kt METAR LFMU 011730Z AUTO 32009KT 280V340 CAVOK 29/06 Q1016 NOSIG
7:00 pm
V
84 °F 6¼ mi+ - 320° 320° 9 kt METAR LFMU 011700Z AUTO 32009KT 290V360 CAVOK 29/06 Q1016 NOSIG
6:30 pm
V
84 °F 6¼ mi+ - 330° 330° 9 kt METAR LFMU 011630Z AUTO 33009KT 300V010 CAVOK 29/04 Q1016 NOSIG
6:00 pm
V
84 °F 6¼ mi+ - 330° 330° 9 kt METAR LFMU 011600Z AUTO 33009KT CAVOK 29/05 Q1016 NOSIG
5:30 pm
V
84 °F 6¼ mi+ - 310° 310° 11 kt METAR LFMU 011530Z AUTO 31011KT 280V340 CAVOK 29/06 Q1016 NOSIG
5:00 pm
V
84 °F 6¼ mi+ - 330° 330° 9 kt METAR LFMU 011500Z AUTO 33009KT 280V020 CAVOK 29/07 Q1016 NOSIG
4:30 pm
V
84 °F 6¼ mi+ - 320° 320° 10 kt METAR LFMU 011430Z AUTO 32010KT 290V360 CAVOK 29/06 Q1017 NOSIG
4:00 pm
V
82 °F 6¼ mi+ - 340° 340° 11 kt METAR LFMU 011400Z AUTO 34011KT 300V010 CAVOK 28/06 Q1017 NOSIG
3:30 pm
V
82 °F 6¼ mi+ - 350° 350° 11 kt METAR LFMU 011330Z AUTO 35011KT 290V020 CAVOK 28/06 Q1017 NOSIG
3:00 pm
V
81 °F 6¼ mi+ - 330° 330° 10 kt METAR LFMU 011300Z AUTO 33010KT 280V030 CAVOK 27/07 Q1017 NOSIG
2:30 pm
V
81 °F 6¼ mi+ - 340° 340° 10 kt METAR LFMU 011230Z AUTO 34010KT 300V010 CAVOK 27/08 Q1017 NOSIG
2:00 pm
V
81 °F 6¼ mi+ - 350° 350° 12 kt METAR LFMU 011200Z AUTO 35012KT 310V020 CAVOK 27/08 Q1018 NOSIG
1:30 pm
V
79 °F 6¼ mi+ - 330° 330° 12 kt METAR LFMU 011130Z AUTO 33012KT 300V010 CAVOK 26/07 Q1018 NOSIG
1:00 pm
V
77 °F 6¼ mi+ - 340° 340° 14 kt METAR LFMU 011100Z AUTO 34014KT 300V360 CAVOK 25/08 Q1018 NOSIG
12:30 pm
V
77 °F 6¼ mi+ - 320° 320° 15 kt METAR LFMU 011030Z AUTO 32015KT CAVOK 25/08 Q1018 NOSIG
12:00 pm
V
75 °F 6¼ mi+ - 330° 330° 13 kt METAR LFMU 011000Z AUTO 33013KT CAVOK 24/09 Q1018 NOSIG
11:30 am
V
75 °F 6¼ mi+ - 330° 330° 15 kt METAR LFMU 010930Z AUTO 33015KT CAVOK 24/09 Q1018 NOSIG
11:00 am
V
73 °F 6¼ mi+ - 340° 340° 14 kt METAR LFMU 010900Z AUTO 34014KT 310V010 CAVOK 23/08 Q1018 NOSIG
10:30 am
V
73 °F 6¼ mi+ - 340° 340° 15 kt METAR LFMU 010830Z AUTO 34015KT CAVOK 23/09 Q1018 NOSIG
10:00 am
V
70 °F 6¼ mi+ - 320° 320° 15 kt METAR LFMU 010800Z AUTO 32015KT CAVOK 21/09 Q1018 NOSIG
9:30 am
V
68 °F 6¼ mi+ - 300° 300° 11 kt METAR LFMU 010730Z AUTO 30011KT CAVOK 20/10 Q1018 NOSIG
9:00 am
V
68 °F 6¼ mi+ - 320° 320° 10 kt METAR LFMU 010700Z AUTO 32010KT CAVOK 20/10 Q1018 NOSIG
8:30 am
V
66 °F 6¼ mi+ - 310° 310° 7 kt METAR LFMU 010630Z AUTO 31007KT 280V350 CAVOK 19/10 Q1018 NOSIG
8:00 am
V
64 °F 6¼ mi+ - 320° 320° 7 kt METAR LFMU 010600Z AUTO 32007KT CAVOK 18/10 Q1018 NOSIG
7:30 am
V
64 °F 6¼ mi+ - 320° 320° 8 kt METAR LFMU 010530Z AUTO 32008KT CAVOK 18/10 Q1018 NOSIG
7:00 am
V
64 °F 6¼ mi+ - 330° 330° 9 kt METAR LFMU 010500Z AUTO 33009KT CAVOK 18/10 Q1018 NOSIG
6:30 am
V
64 °F 6¼ mi+ - 340° 340° 10 kt METAR LFMU 010430Z AUTO 34010KT CAVOK 18/10 Q1018 TEMPO 28008KT
6:00 am
V
63 °F 6¼ mi+ - 340° 340° 10 kt METAR LFMU 010400Z AUTO 34010KT CAVOK 17/10 Q1018 BECMG 28008KT
5:30 am
V
63 °F 6¼ mi+ - 340° 340° 5 kt METAR LFMU 010330Z AUTO 34005KT CAVOK 17/10 Q1018 NOSIG
5:00 am
V
64 °F 6¼ mi+ - 330° 330° 7 kt METAR LFMU 010300Z AUTO 33007KT CAVOK 18/10 Q1018 NOSIG
4:30 am
V
64 °F 6¼ mi+ - 290° 290° 5 kt METAR LFMU 010230Z AUTO 29005KT CAVOK 18/10 Q1018 NOSIG
4:00 am
V
66 °F 6¼ mi+ - 320° 320° 10 kt METAR LFMU 010200Z AUTO 32010KT CAVOK 19/10 Q1017
3:30 am
V
66 °F 6¼ mi+ - 330° 330° 9 kt METAR LFMU 010130Z AUTO 33009KT 300V360 CAVOK 19/09 Q1017
3:00 am
V
66 °F 6¼ mi+ - 330° 330° 14 kt METAR LFMU 010100Z AUTO 33014KT CAVOK 19/09 Q1017
2:30 am
V
68 °F 6¼ mi+ - 330° 330° 12 kt METAR LFMU 010030Z AUTO 33012KT CAVOK 20/09 Q1017
2:00 am
V
68 °F 6¼ mi+ - 310° 310° 6 kt METAR LFMU 010000Z AUTO 31006KT CAVOK 20/10 Q1017
1:30 am
V
68 °F 6¼ mi+ - 310° 310° 10 kt METAR LFMU 302330Z AUTO 31010KT CAVOK 20/10 Q1017
1:00 am
V
66 °F 6¼ mi+ - 300° 300° 9 kt METAR LFMU 302300Z AUTO 30009KT CAVOK 19/11 Q1017
12:30 am
V
66 °F 6¼ mi+ - 310° 310° 6 kt METAR LFMU 302230Z AUTO 31006KT CAVOK 19/12 Q1017
12:00 am
V
66 °F 6¼ mi+ - 280° 280° 7 kt METAR LFMU 302200Z AUTO 28007KT CAVOK 19/12 Q1016

30 giugno 2022

Tempo Codice Tempo metereologico Temp. Vista Base nuvolosa Vento METAR/SPECI
11:30 pm
V
68 °F 6¼ mi+ - 280° 280° 6 kt METAR LFMU 302130Z AUTO 28006KT CAVOK 20/12 Q1016
11:00 pm
V
68 °F 6¼ mi+ - 300° 300° 8 kt METAR LFMU 302100Z AUTO 30008KT CAVOK 20/12 Q1016
10:30 pm
V
68 °F 6¼ mi+ - 310° 310° 11 kt METAR LFMU 302030Z AUTO 31011KT CAVOK 20/11 Q1015 TEMPO SHRA FEW030CB BKN040
10:00 pm
V
70 °F 6¼ mi+ - 330° 330° 9 kt METAR LFMU 302000Z AUTO 33009KT CAVOK 21/11 Q1015 TEMPO SHRA FEW030CB BKN040
9:30 pm
V
70 °F 6¼ mi+ - 310° 310° 8 kt METAR LFMU 301930Z AUTO 31008KT CAVOK 21/13 Q1015 TEMPO SHRA FEW030CB BKN040
9:00 pm
V
70 °F 6¼ mi+ - 320° 320° 6 kt METAR LFMU 301900Z AUTO 32006KT CAVOK 21/13 Q1014 NOSIG
8:30 pm
V
72 °F 6¼ mi+ - 320° 320° 11 kt METAR LFMU 301830Z AUTO 32011KT CAVOK 22/13 Q1014 NOSIG
8:00 pm
V
70 °F 6¼ mi+ - 320° 320° 10 kt METAR LFMU 301800Z AUTO 32010KT CAVOK 21/13 Q1014 NOSIG
7:30 pm
V
72 °F 6¼ mi+ - 330° 330° 10 kt METAR LFMU 301730Z AUTO 33010KT CAVOK 22/13 Q1014 NOSIG
7:00 pm
V
73 °F 6¼ mi+ - 330° 330° 12 kt METAR LFMU 301700Z AUTO 33012KT CAVOK 23/13 Q1014 TEMPO 28015G25KT
6:30 pm
V
75 °F 6¼ mi+ - 320° 320° 11 kt METAR LFMU 301630Z AUTO 32011KT CAVOK 24/14 Q1013 TEMPO 28015G25KT
6:00 pm
V
75 °F 6¼ mi+ - 320° 320° 14 kt METAR LFMU 301600Z AUTO 32014KT 9999 FEW043 24/14 Q1013 TEMPO 28015G25KT
5:30 pm
V
77 °F 6¼ mi+ - 280° 280° 12 kt METAR LFMU 301530Z AUTO 28012KT 250V320 9999 ///TCU 25/15 Q1013 TEMPO 28015G25KT BECMG NSC
5:00 pm
V
75 °F 6¼ mi+ - 270° 270° 13 kt METAR LFMU 301500Z AUTO 27013KT CAVOK 24/14 Q1013 TEMPO 28015G25KT
4:30 pm
V
77 °F 6¼ mi+ - 270° 270° 14 kt METAR LFMU 301430Z AUTO 27014KT CAVOK 25/14 Q1013 TEMPO 28015G25KT
4:00 pm
V
77 °F 6¼ mi+ - 270° 270° 13 kt METAR LFMU 301400Z AUTO 27013KT 240V300 CAVOK 25/15 Q1013 TEMPO 28015G25KT
3:30 pm
V
79 °F 6¼ mi+ 4.900 ft 270° 270° 14 kt METAR LFMU 301330Z AUTO 27014KT 9999 OVC049 26/15 Q1013 TEMPO 28015G25KT
3:00 pm
V
77 °F 6¼ mi+ 4.800 ft 270° 270° 14 kt METAR LFMU 301300Z AUTO 27014KT 9999 OVC048 25/15 Q1013 TEMPO 28015G25KT
2:30 pm
V
77 °F 6¼ mi+ - 260° 260° 15 kt METAR LFMU 301230Z AUTO 26015KT CAVOK 25/15 Q1013 TEMPO 28015G25KT
2:00 pm
V
77 °F 6¼ mi+ - 270° 270° 15 kt METAR LFMU 301200Z AUTO 27015KT CAVOK 25/15 Q1013 TEMPO 28015G25KT
1:30 pm
V
79 °F 6¼ mi+ - 270° 270° 14 kt METAR LFMU 301130Z AUTO 27014KT CAVOK 26/16 Q1012 TEMPO 28015G25KT
1:00 pm
V
77 °F 6¼ mi+ - 260° 260° 13 kt METAR LFMU 301100Z AUTO 26013KT 220V280 CAVOK 25/16 Q1013 TEMPO 28015G25KT
12:30 pm
V
77 °F 6¼ mi+ - 260° 260° 14 kt METAR LFMU 301030Z AUTO 26014KT 230V290 CAVOK 25/16 Q1013 TEMPO 28015G25KT
12:00 pm
V
75 °F 6¼ mi+ - 270° 270° 12 kt METAR LFMU 301000Z AUTO 27012KT 230V290 CAVOK 24/16 Q1013 TEMPO 28015G25KT
11:30 am
V
75 °F 6¼ mi+ - 270° 270° 12 kt METAR LFMU 300930Z AUTO 27012KT 240V300 CAVOK 24/16 Q1012 TEMPO 28015G25KT
11:00 am
V
73 °F 6¼ mi+ - 270° 270° 12 kt METAR LFMU 300900Z AUTO 27012KT CAVOK 23/16 Q1012 NOSIG
10:30 am
V
73 °F 6¼ mi+ - 270° 270° 12 kt METAR LFMU 300830Z AUTO 27012KT CAVOK 23/16 Q1012 NOSIG
10:00 am
V
72 °F 6¼ mi+ - 260° 260° 11 kt METAR LFMU 300800Z AUTO 26011KT CAVOK 22/17 Q1012 NOSIG
9:30 am
V
72 °F 6¼ mi+ - 280° 280° 10 kt METAR LFMU 300730Z AUTO 28010KT CAVOK 22/16 Q1012 NOSIG
9:00 am
V
70 °F 6¼ mi+ - 280° 280° 9 kt METAR LFMU 300700Z AUTO 28009KT CAVOK 21/17 Q1012 NOSIG
8:30 am
V
70 °F 6¼ mi+ - 280° 280° 7 kt METAR LFMU 300630Z AUTO 28007KT CAVOK 21/17 Q1012 NOSIG
8:00 am
V
68 °F 6¼ mi+ - 280° 280° 6 kt METAR LFMU 300600Z AUTO 28006KT CAVOK 20/16 Q1012 NOSIG
7:30 am
V
68 °F 6¼ mi+ - 280° 280° 10 kt METAR LFMU 300530Z AUTO 28010KT CAVOK 20/17 Q1012 NOSIG
7:00 am
V
66 °F 6¼ mi+ - 270° 270° 11 kt METAR LFMU 300500Z AUTO 27011KT CAVOK 19/17 Q1011 NOSIG
Dati più vecchi

Scarica la nostra applicazione

Facile accesso a tutte le previsioni dell'aviazione sul tuo cellulare e tablet.
Con molte caratteristiche non disponibili sul sito web, come il supporto offline e una lista personale di aeroporti.

Noi e le terze parti seguiamo il tuo comportamento in internet sul nostro sito web con i cookie. Se continui, riteniamo che tu sia d'accordo con la nostra politica sui cookie. Per saperne di più